Flight Track Log - Related Links

Times and Time Zones

All times are in EDT time to prevent confusion due to time zone crossing. See the SAS4006 flight status page for this flight to view local times or setup timezone preferences in your user account.

Time Position Orientation Groundspeed Altitude Reporting Facility
EDT Latitude Longitude Course Direction KTS MPH feet Rate Location/Type
Wed 01:31:50 AM 58.8880 5.6370 90° East 92 106  Level FlightAware ADS-B
Wed 01:32:16 AM 58.8710 5.6380 178° South 152 175 600 1,696 Climbing FlightAware ADS-B
Wed 01:32:36 AM 58.8570 5.6380 180° South 160 184 1,300 2,270 Climbing FlightAware ADS-B
Wed 01:32:53 AM 58.8440 5.6370 182° South 163 188 2,000 2,919 Climbing FlightAware ADS-B
Wed 01:33:13 AM 58.8290 5.6360 182° South 163 188 3,100 2,875 Climbing FlightAware ADS-B
Wed 01:33:41 AM 58.8080 5.6500 161° South 206 237 4,300 2,294 Climbing FlightAware ADS-B
Wed 01:33:47 AM 58.8040 5.6610 125° Southeast 224 258 4,400 1,929 Climbing FlightAware ADS-B
Wed 01:34:09 AM 58.7930 5.7020 117° Southeast 259 298 5,200 2,270 Climbing FlightAware ADS-B
Wed 01:34:24 AM 58.7840 5.7350 118° Southeast 280 322 5,800 3,086 Climbing FlightAware ADS-B
Wed 01:34:44 AM 58.7720 5.7790 118° Southeast 293 337 7,000 3,805 Climbing FlightAware ADS-B
Wed 01:35:05 AM 58.7590 5.8300 116° Southeast 301 346 8,400 3,659 Climbing FlightAware ADS-B
Wed 01:35:25 AM 58.7460 5.8770 118° Southeast 309 356 9,500 3,055 Climbing FlightAware ADS-B
Wed 01:36:00 AM 58.7240 5.9670 115° Southeast 340 391 11,200 3,167 Climbing FlightAware ADS-B
Wed 01:36:37 AM 58.6970 6.0710 117° Southeast 357 411 13,300 3,462 Climbing FlightAware ADS-B
Wed 01:36:52 AM 58.6880 6.1140 112° Southeast 360 414 14,200 3,214 Climbing FlightAware ADS-B
Wed 01:37:05 AM 58.6850 6.1580 97° East 369 425 14,800 1,317 Climbing FlightAware ADS-B
Wed 01:37:33 AM 58.6960 6.2490 77° East 377 434 15,100 1,714 Climbing FlightAware ADS-B
Wed 01:38:08 AM 58.7180 6.3570 69° East 384 442 16,600 2,507 Climbing FlightAware ADS-B
Wed 01:38:40 AM 58.7390 6.4630 69° East 408 470 17,900 2,647 Climbing FlightAware ADS-B
Wed 01:39:16 AM 58.7640 6.5910 69° East 424 488 19,600 2,795 Climbing FlightAware ADS-B
Wed 01:39:53 AM 58.7880 6.7160 70° East 434 499 21,300 2,548 Climbing FlightAware ADS-B
Wed 01:40:29 AM 58.8130 6.8480 70° East 447 514 22,700 2,471 Climbing FlightAware ADS-B
Wed 01:41:01 AM 58.8360 6.9690 70° East 455 524 24,100 2,435 Climbing FlightAware ADS-B
Wed 01:41:38 AM 58.8640 7.1150 70° East 464 534 25,500 2,167 Climbing FlightAware ADS-B
Wed 01:42:13 AM 58.8890 7.2490 70° East 473 544 26,700 2,149 Climbing FlightAware ADS-B
Wed 01:42:45 AM 58.9140 7.3810 70° East 480 552 27,900 2,261 Climbing FlightAware ADS-B
Wed 01:43:22 AM 58.9420 7.5330 70° East 484 557 29,300 2,143 Climbing FlightAware ADS-B
Wed 01:43:55 AM 58.9660 7.6650 71° East 485 558 30,400 2,087 Climbing FlightAware ADS-B
Wed 01:44:31 AM 58.9940 7.8150 70° East 486 559 31,700 2,113 Climbing FlightAware ADS-B
Wed 01:45:06 AM 59.0200 7.9610 71° East 486 559 32,900 1,083 Climbing FlightAware ADS-B
Wed 01:45:43 AM 59.0470 8.1080 70° East 467 537 33,000 -83 Climbing FlightAware ADS-B
Wed 01:46:18 AM 59.0700 8.2360 71° East 443 510 32,800 -882 Descending FlightAware ADS-B
Wed 01:46:51 AM 59.0920 8.3660 72° East 438 504 32,000 -1,462 Descending FlightAware ADS-B
Wed 01:47:36 AM 59.1220 8.5320 71° East 437 503 30,900 -1,462 Descending FlightAware ADS-B
Wed 01:48:09 AM 59.1420 8.6470 71° East 439 505 30,100 -1,391 Descending FlightAware ADS-B
Wed 01:48:45 AM 59.1660 8.7850 71° East 443 510 29,300 -1,371 Descending FlightAware ADS-B
Wed 01:49:19 AM 59.1880 8.9120 71° East 439 505 28,500 -1,433 Descending FlightAware ADS-B
Wed 01:49:52 AM 59.2090 9.0360 72° East 442 509 27,700 -1,457 Descending FlightAware ADS-B
Wed 01:50:29 AM 59.2310 9.1690 72° East 440 506 26,800 -1,500 Descending FlightAware ADS-B
Wed 01:51:04 AM 59.2540 9.3070 72° East 430 495 25,900 -1,500 Descending FlightAware ADS-B
Wed 01:51:41 AM 59.2770 9.4400 71° East 416 479 25,000 -1,333 Descending FlightAware ADS-B
Wed 01:52:16 AM 59.2980 9.5710 73° East 397 457 24,300 -1,164 Descending FlightAware ADS-B
Wed 01:52:48 AM 59.3160 9.6770 72° East 382 440 23,700 -952 Descending FlightAware ADS-B
Wed 01:53:19 AM 59.3350 9.7710 68° East 364 419 23,300 -769 Descending FlightAware ADS-B
Wed 01:53:27 AM 59.3460 9.7920 44° Northeast 351 404 23,200 -632 Descending FlightAware ADS-B
Wed 01:53:38 AM 59.3600 9.8080 30° Northeast 333 383 23,100 -889 Descending FlightAware ADS-B
Wed 01:53:54 AM 59.3830 9.8180 12° North 312 359 22,800 -1,227 Descending FlightAware ADS-B
Wed 01:54:22 AM 59.4190 9.8000 346° North 279 321 22,200 -1,463 Descending FlightAware ADS-B
Wed 01:54:35 AM 59.4310 9.7810 321° Northwest 271 312 21,800 -1,714 Descending FlightAware ADS-B
Wed 01:54:50 AM 59.4430 9.7500 307° West 264 304 21,400 -1,778 Descending FlightAware ADS-B
Wed 01:55:02 AM 59.4480 9.7230 290° West 261 300 21,000 -1,846 Descending FlightAware ADS-B
Wed 01:55:16 AM 59.4500 9.6910 277° West 261 300 20,600 -1,667 Descending FlightAware ADS-B
Wed 01:55:38 AM 59.4440 9.6420 256° West 263 303 20,000 -1,548 Descending FlightAware ADS-B
Wed 01:55:47 AM 59.4380 9.6260 234° Southwest 266 306 19,800 -1,500 Descending FlightAware ADS-B
Wed 01:56:02 AM 59.4220 9.6040 215° Southwest 272 313 19,400 -1,500 Descending FlightAware ADS-B
Wed 01:56:15 AM 59.4060 9.5950 196° South 278 320 19,100 -1,385 Descending FlightAware ADS-B
Wed 01:56:41 AM 59.3720 9.6010 175° South 284 327 18,500 -1,472 Descending FlightAware ADS-B
Wed 01:57:08 AM 59.3380 9.6190 165° South 291 335 17,800 -1,500 Descending FlightAware ADS-B
Wed 01:57:25 AM 59.3200 9.6470 142° Southeast 301 346 17,400 -1,500 Descending FlightAware ADS-B
Wed 01:57:36 AM 59.3130 9.6730 118° Southeast 307 353 17,100 -1,500 Descending FlightAware ADS-B
Wed 01:57:45 AM 59.3100 9.6970 104° East 312 359 16,900 -1,355 Descending FlightAware ADS-B
Wed 01:58:07 AM 59.3160 9.7500 77° East 309 356 16,400 -1,636 Descending FlightAware ADS-B
Wed 01:58:18 AM 59.3290 9.7760 46° Northeast 304 350 16,000 -1,714 Descending FlightAware ADS-B
Wed 01:58:35 AM 59.3480 9.7940 26° Northeast 293 337 15,600 -1,116 Descending FlightAware ADS-B
Wed 01:59:01 AM 59.3820 9.8090 13° North 287 330 15,200 -1,700 Descending FlightAware ADS-B
Wed 01:59:35 AM 59.4300 9.8300 13° North 306 352 13,900 -1,913 Descending FlightAware ADS-B
Wed 02:00:10 AM 59.4770 9.8520 13° North 310 357 13,000 -1,412 Descending FlightAware ADS-B
Wed 02:00:43 AM 59.5200 9.8720 13° North 304 350 12,300 -870 Descending FlightAware ADS-B
Wed 02:01:19 AM 59.5710 9.8950 13° North 299 344 12,000 -254 Descending FlightAware ADS-B
Wed 02:01:54 AM 59.6200 9.9170 13° North 299 344 12,000  Level FlightAware ADS-B
Wed 02:02:29 AM 59.6630 9.9370 13° North 295 339 12,000  Level FlightAware ADS-B
Wed 02:03:05 AM 59.7100 9.9630 16° North 294 338 12,000  Level FlightAware ADS-B
Wed 02:03:40 AM 59.7600 9.9920 16° North 307 353 12,000  Level FlightAware ADS-B
Wed 02:04:12 AM 59.8040 10.0160 15° North 304 350 12,000  Level FlightAware ADS-B
Wed 02:04:49 AM 59.8540 10.0450 16° North 303 349 12,000  Level FlightAware ADS-B
Wed 02:05:26 AM 59.9020 10.0720 16° North 297 342 12,000  Level FlightAware ADS-B
Wed 02:06:00 AM 59.9480 10.0970 15° North 299 344 12,000  Level FlightAware ADS-B
Wed 02:06:33 AM 59.9920 10.1230 16° North 301 346 12,000 -600 Level FlightAware ADS-B
Wed 02:07:10 AM 60.0400 10.1510 16° North 290 334 11,300 -1,216 Descending FlightAware ADS-B
Wed 02:07:47 AM 60.0870 10.1770 15° North 278 320 10,500 -1,200 Descending FlightAware ADS-B
Wed 02:08:15 AM 60.1210 10.1970 16° North 271 312 10,000 -1,277 Descending FlightAware ADS-B
Wed 02:08:34 AM 60.1440 10.2110 17° North 269 310 9,500 -1,688 Descending FlightAware ADS-B
Wed 02:08:47 AM 60.1590 10.2190 15° North 271 312 9,100 -811 Descending FlightAware ADS-B
Wed 02:09:11 AM 60.1890 10.2360 16° North 272 313 9,000 -136 Descending FlightAware ADS-B
Wed 02:09:31 AM 60.2130 10.2510 17° North 273 314 9,000  Level FlightAware ADS-B
Wed 02:09:43 AM 60.2260 10.2580 15° North 272 313 9,000  Level FlightAware ADS-B
Wed 02:10:06 AM 60.2540 10.2740 16° North 259 298 9,000  Level FlightAware ADS-B
Wed 02:10:18 AM 60.2680 10.2830 18° North 253 291 9,000  Level FlightAware ADS-B
Wed 02:10:38 AM 60.2890 10.2950 16° North 252 290 9,000  Level FlightAware ADS-B
Wed 02:10:55 AM 60.3100 10.3070 16° North 249 287 9,000  Level FlightAware ADS-B
Wed 02:11:15 AM 60.3310 10.3200 17° North 248 285 9,000  Level FlightAware ADS-B
Wed 02:11:34 AM 60.3510 10.3390 25° Northeast 247 284 9,000  Level FlightAware ADS-B
Wed 02:12:02 AM 60.3810 10.3660 24° Northeast 253 291 9,000  Level FlightAware ADS-B
Wed 02:12:26 AM 60.4060 10.3890 24° Northeast 254 292 9,000  Level FlightAware ADS-B
Wed 02:12:48 AM 60.4290 10.4100 24° Northeast 255 293 9,000  Level FlightAware ADS-B
Wed 02:13:07 AM 60.4500 10.4280 23° Northeast 257 296 9,000  Level FlightAware ADS-B
Wed 02:13:19 AM 60.4640 10.4390 21° North 255 293 9,000  Level FlightAware ADS-B
Wed 02:13:43 AM 60.4900 10.4510 13° North 249 287 9,000  Level FlightAware ADS-B
Wed 02:14:04 AM 60.5140 10.4590 North 250 288 9,000  Level FlightAware ADS-B
Wed 02:14:24 AM 60.5370 10.4670 10° North 249 287 9,000  Level FlightAware ADS-B
Wed 02:14:39 AM 60.5540 10.4730 10° North 251 289 9,000  Level FlightAware ADS-B
Wed 02:15:00 AM 60.5780 10.4870 16° North 257 296 9,000  Level FlightAware ADS-B
Wed 02:15:20 AM 60.5990 10.5100 28° Northeast 257 296 9,000  Level FlightAware ADS-B
Wed 02:15:35 AM 60.6130 10.5270 31° Northeast 258 297 9,000  Level FlightAware ADS-B
Wed 02:15:56 AM 60.6370 10.5540 29° Northeast 257 296 9,000  Level FlightAware ADS-B
Wed 02:16:08 AM 60.6480 10.5670 30° Northeast 257 296 9,000  Level FlightAware ADS-B
Wed 02:16:32 AM 60.6720 10.6000 34° Northeast 255 293 9,000  Level FlightAware ADS-B
Wed 02:16:44 AM 60.6810 10.6240 53° Northeast 259 298 9,000  Level FlightAware ADS-B
Wed 02:16:51 AM 60.6840 10.6380 66° East 263 303 9,000  Level FlightAware ADS-B
Wed 02:16:59 AM 60.6850 10.6580 84° East 265 305 9,000  Level FlightAware ADS-B
Wed 02:17:19 AM 60.6800 10.7030 103° East 273 314 9,000  Level FlightAware ADS-B
Wed 02:17:27 AM 60.6740 10.7210 124° Southeast 271 312 9,000  Level FlightAware ADS-B
Wed 02:17:31 AM 60.6700 10.7290 136° Southeast 269 310 9,000 -300 Level FlightAware ADS-B
Wed 02:17:47 AM 60.6560 10.7530 140° Southeast 267 307 8,900 -706 Descending FlightAware ADS-B
Wed 02:18:05 AM 60.6380 10.7850 139° Southeast 267 307 8,600 -1,000 Descending FlightAware ADS-B
Wed 02:18:23 AM 60.6220 10.8130 139° Southeast 263 303 8,300 -1,231 Descending FlightAware ADS-B
Wed 02:18:44 AM 60.6020 10.8490 139° Southeast 259 298 7,800 -1,412 Descending FlightAware ADS-B
Wed 02:18:57 AM 60.5920 10.8650 142° Southeast 261 300 7,500 -1,371 Descending FlightAware ADS-B
Wed 02:19:19 AM 60.5710 10.9040 138° Southeast 262 302 7,000 -1,429 Descending FlightAware ADS-B
Wed 02:19:39 AM 60.5530 10.9350 140° Southeast 263 303 6,500 -1,105 Descending FlightAware ADS-B
Wed 02:19:57 AM 60.5350 10.9650 141° Southeast 259 298 6,300 -300 Descending FlightAware ADS-B
Wed 02:20:19 AM 60.5170 10.9970 139° Southeast 256 295 6,300 -158 Level FlightAware ADS-B
Wed 02:20:35 AM 60.5040 11.0280 130° Southeast 244 281 6,200 -667 Descending FlightAware ADS-B
Wed 02:20:55 AM 60.4900 11.0600 132° Southeast 240 276 5,900 -1,167 Descending FlightAware ADS-B
Wed 02:21:11 AM 60.4770 11.0900 131° Southeast 240 276 5,500 -1,167 Descending FlightAware ADS-B
Wed 02:21:31 AM 60.4630 11.1220 132° Southeast 240 276 5,200 -1,077 Descending FlightAware ADS-B
Wed 02:21:50 AM 60.4490 11.1550 131° Southeast 240 276 4,800 -1,000 Descending FlightAware ADS-B
Wed 02:22:01 AM 60.4420 11.1690 135° Southeast 238 274 4,700 -774 Descending FlightAware ADS-B
Wed 02:22:21 AM 60.4260 11.2050 132° Southeast 230 265 4,400 -857 Descending FlightAware ADS-B
Wed 02:22:29 AM 60.4180 11.2120 157° South 217 250 4,300 -429 Descending FlightAware ADS-B
Wed 02:22:35 AM 60.4140 11.2130 173° South 209 241 4,300  Level FlightAware ADS-B
Wed 02:22:57 AM 60.3960 11.1980 202° Southwest 191 220 4,300  Level FlightAware ADS-B
Wed 02:23:17 AM 60.3780 11.1850 200° South 193 222 4,300 -450 Level FlightAware ADS-B
Wed 02:23:37 AM 60.3610 11.1760 195° South 193 222 4,000 -900 Descending FlightAware ADS-B
Wed 02:23:57 AM 60.3440 11.1660 196° South 191 220 3,700 -900 Descending FlightAware ADS-B
Wed 02:24:17 AM 60.3280 11.1560 197° South 188 216 3,400 -1,167 Descending FlightAware ADS-B
Wed 02:24:33 AM 60.3130 11.1480 195° South 185 213 3,000 -1,105 Descending FlightAware ADS-B
Wed 02:24:55 AM 60.2960 11.1380 196° South 175 201 2,700 -882 Descending FlightAware ADS-B
Wed 02:25:07 AM 60.2880 11.1330 197° South 164 189 2,500 -938 Descending FlightAware ADS-B
Wed 02:25:27 AM 60.2730 11.1250 195° South 150 173 2,200 -833 Descending FlightAware ADS-B
Wed 02:25:43 AM 60.2630 11.1190 197° South 139 160 2,000 -667 Descending FlightAware ADS-B
Wed 02:26:03 AM 60.2510 11.1120 196° South 134 154 1,800 -732 Descending FlightAware ADS-B
Wed 02:26:24 AM 60.2390 11.1050 196° South 130 150 1,500 -833 Descending FlightAware ADS-B
Wed 02:26:39 AM 60.2300 11.1000 195° South 127 146 1,300 -727 Descending FlightAware ADS-B
Wed 02:26:57 AM 60.2200 11.0940 197° South 129 148 1,100 -279 Descending FlightAware ADS-B
Wed 02:27:22 AM 60.2070 11.0870 195° South 129 148 1,100  Level FlightAware ADS-B
Wed 02:29:00 AM 60.1939 11.1004 153° Southeast  Level Estimated

Login

Don't have an account? Register now (free) for customized features, flight alerts, and more!